QTR890 ZSJN-ZGGG
Flight info
| Callsign | QTR890 |
|---|---|
| Flight time | 2h 34m |
| Altitude | 37100 |
| Route | ABTUB7Y ABTUB A593 DPX A470 OF W95 SAPIN A470 AKDIM/K0900S1160 A470 DUBGO W134 ELNEX A599 PLT W19 OLPAB OLPAB5 |
| Aircraft | B77W/H-SDE1E2E3FGHIJ2J3J4J5M1RWXY/LB1D1 |
Departure
| Time | 2026-04-18 05:42 |
|---|---|
| Airport | Jinan Yaoqiang International Airport (ZSJN) |
Arrival
| Time | 2026-04-18 08:17 |
|---|---|
| Airport | Guangzhou Baiyun International Airport (ZGGG) |
| Time | Latitude | Longitude | Altitude | Speed | Heading |
|---|---|---|---|---|---|
| 2026-04-18 05:25 | 36.85501 | 117.21156 | 90 ft | 0 kts | 290° |
| 2026-04-18 05:30 | 36.85500 | 117.21160 | 90 ft | 2 kts | 290° |
| 2026-04-18 05:31 | 36.85495 | 117.21178 | 90 ft | 2 kts | 290° |
| 2026-04-18 05:31 | 36.85489 | 117.21196 | 90 ft | 2 kts | 290° |
| 2026-04-18 05:31 | 36.85484 | 117.21213 | 90 ft | 2 kts | 290° |
| 2026-04-18 05:31 | 36.85479 | 117.21230 | 90 ft | 2 kts | 297° |
| 2026-04-18 05:32 | 36.85471 | 117.21246 | 90 ft | 2 kts | 315° |
| 2026-04-18 05:32 | 36.85459 | 117.21258 | 90 ft | 2 kts | 328° |
| 2026-04-18 05:32 | 36.85446 | 117.21266 | 90 ft | 2 kts | 342° |
| 2026-04-18 05:32 | 36.85431 | 117.21270 | 90 ft | 2 kts | 356° |
| 2026-04-18 05:33 | 36.85416 | 117.21270 | 90 ft | 2 kts | 2° |
| 2026-04-18 05:33 | 36.85401 | 117.21269 | 90 ft | 2 kts | 0° |
| 2026-04-18 05:33 | 36.85387 | 117.21269 | 90 ft | 1 kts | 359° |
| 2026-04-18 05:33 | 36.85386 | 117.21269 | 90 ft | 0 kts | 359° |
| 2026-04-18 05:35 | 36.85387 | 117.21269 | 90 ft | 1 kts | 359° |
| 2026-04-18 05:35 | 36.85412 | 117.21269 | 90 ft | 6 kts | 360° |
| 2026-04-18 05:36 | 36.85460 | 117.21290 | 90 ft | 9 kts | 57° |
| 2026-04-18 05:36 | 36.85493 | 117.21357 | 90 ft | 9 kts | 25° |
| 2026-04-18 05:36 | 36.85577 | 117.21370 | 90 ft | 14 kts | 360° |
| 2026-04-18 05:36 | 36.85691 | 117.21370 | 90 ft | 18 kts | 0° |
| 2026-04-18 05:37 | 36.85828 | 117.21371 | 90 ft | 21 kts | 360° |
| 2026-04-18 05:37 | 36.85986 | 117.21370 | 90 ft | 24 kts | 360° |
| 2026-04-18 05:37 | 36.86162 | 117.21371 | 90 ft | 26 kts | 0° |
| 2026-04-18 05:37 | 36.86360 | 117.21371 | 90 ft | 29 kts | 360° |
| 2026-04-18 05:38 | 36.86565 | 117.21371 | 90 ft | 28 kts | 360° |
| 2026-04-18 05:38 | 36.86760 | 117.21372 | 90 ft | 27 kts | 0° |
| 2026-04-18 05:38 | 36.86941 | 117.21372 | 90 ft | 25 kts | 0° |
| 2026-04-18 05:38 | 36.87113 | 117.21373 | 90 ft | 23 kts | 360° |
| 2026-04-18 05:39 | 36.87224 | 117.21372 | 90 ft | 8 kts | 360° |
| 2026-04-18 05:39 | 36.87283 | 117.21373 | 90 ft | 8 kts | 0° |
| 2026-04-18 05:39 | 36.87330 | 117.21394 | 90 ft | 7 kts | 53° |
| 2026-04-18 05:39 | 36.87339 | 117.21449 | 90 ft | 3 kts | 88° |
| 2026-04-18 05:40 | 36.87339 | 117.21452 | 90 ft | 0 kts | 88° |
| 2026-04-18 05:40 | 36.87339 | 117.21456 | 90 ft | 1 kts | 88° |
| 2026-04-18 05:40 | 36.87340 | 117.21488 | 90 ft | 5 kts | 88° |
| 2026-04-18 05:40 | 36.87338 | 117.21551 | 90 ft | 8 kts | 103° |
| 2026-04-18 05:41 | 36.87291 | 117.21596 | 90 ft | 10 kts | 175° |
| 2026-04-18 05:41 | 36.87248 | 117.21597 | 90 ft | 0 kts | 179° |
| 2026-04-18 05:41 | 36.87245 | 117.21597 | 90 ft | 4 kts | 179° |
| 2026-04-18 05:42 | 36.87030 | 117.21597 | 90 ft | 66 kts | 180° |
| 2026-04-18 05:42 | 36.86332 | 117.21596 | 90 ft | 132 kts | 180° |
| 2026-04-18 05:42 | 36.85246 | 117.21602 | 302 ft | 167 kts | 179° |
| 2026-04-18 05:42 | 36.84081 | 117.21659 | 942 ft | 175 kts | 179° |
| 2026-04-18 05:43 | 36.82869 | 117.21703 | 1567 ft | 181 kts | 180° |
| 2026-04-18 05:43 | 36.81566 | 117.21711 | 1983 ft | 195 kts | 181° |
| 2026-04-18 05:43 | 36.80140 | 117.21697 | 2384 ft | 212 kts | 181° |
| 2026-04-18 05:43 | 36.78602 | 117.21680 | 2858 ft | 229 kts | 180° |
| 2026-04-18 05:44 | 36.77600 | 117.21669 | 3136 ft | 239 kts | 180° |
| 2026-04-18 05:44 | 36.76034 | 117.21653 | 3611 ft | 252 kts | 180° |
| 2026-04-18 05:44 | 36.74296 | 117.21635 | 4497 ft | 252 kts | 180° |
| 2026-04-18 05:44 | 36.72559 | 117.21619 | 5245 ft | 255 kts | 180° |
| 2026-04-18 05:45 | 36.70750 | 117.21603 | 5855 ft | 262 kts | 179° |
| 2026-04-18 05:45 | 36.68930 | 117.21585 | 6682 ft | 262 kts | 179° |
| 2026-04-18 05:45 | 36.67126 | 117.21567 | 7373 ft | 265 kts | 179° |
| 2026-04-18 05:45 | 36.65272 | 117.21548 | 8086 ft | 268 kts | 179° |
| 2026-04-18 05:46 | 36.63382 | 117.21528 | 8787 ft | 271 kts | 179° |
| 2026-04-18 05:46 | 36.61503 | 117.21509 | 9512 ft | 273 kts | 179° |
| 2026-04-18 05:46 | 36.59621 | 117.21490 | 10149 ft | 277 kts | 179° |
| 2026-04-18 05:46 | 36.57630 | 117.21470 | 10502 ft | 294 kts | 179° |
| 2026-04-18 05:47 | 36.55501 | 117.21449 | 10791 ft | 312 kts | 179° |
| 2026-04-18 05:47 | 36.53280 | 117.21427 | 11125 ft | 329 kts | 180° |
| 2026-04-18 05:47 | 36.50934 | 117.21403 | 11496 ft | 345 kts | 180° |
| 2026-04-18 05:47 | 36.48483 | 117.21378 | 11866 ft | 361 kts | 180° |
| 2026-04-18 05:48 | 36.45917 | 117.21401 | 12297 ft | 374 kts | 176° |
| 2026-04-18 05:48 | 36.43335 | 117.21933 | 12924 ft | 383 kts | 165° |
| 2026-04-18 05:48 | 36.40813 | 117.23103 | 13600 ft | 392 kts | 154° |
| 2026-04-18 05:48 | 36.38473 | 117.24896 | 14375 ft | 399 kts | 142° |
| 2026-04-18 05:49 | 36.36374 | 117.27093 | 15243 ft | 403 kts | 139° |
| 2026-04-18 05:49 | 36.34243 | 117.29420 | 16170 ft | 407 kts | 138° |
| 2026-04-18 05:49 | 36.32127 | 117.31728 | 17039 ft | 412 kts | 139° |
| 2026-04-18 05:49 | 36.29814 | 117.33855 | 17799 ft | 418 kts | 148° |
| 2026-04-18 05:50 | 36.27211 | 117.35475 | 18548 ft | 425 kts | 158° |
| 2026-04-18 05:50 | 36.24387 | 117.36513 | 19340 ft | 429 kts | 168° |
| 2026-04-18 05:50 | 36.21380 | 117.36925 | 20118 ft | 434 kts | 178° |
| 2026-04-18 05:50 | 36.18353 | 117.36931 | 20891 ft | 439 kts | 180° |
| 2026-04-18 05:51 | 36.15288 | 117.36898 | 21678 ft | 443 kts | 180° |
| 2026-04-18 05:51 | 36.12211 | 117.36868 | 22415 ft | 448 kts | 180° |
| 2026-04-18 05:51 | 36.09078 | 117.36844 | 23149 ft | 452 kts | 180° |
| 2026-04-18 05:51 | 36.05941 | 117.36822 | 23826 ft | 456 kts | 180° |
| 2026-04-18 05:52 | 36.02732 | 117.36809 | 24480 ft | 461 kts | 179° |
| 2026-04-18 05:52 | 35.99533 | 117.37180 | 25115 ft | 466 kts | 169° |
| 2026-04-18 05:52 | 35.96387 | 117.38146 | 25706 ft | 470 kts | 163° |
| 2026-04-18 05:52 | 35.93263 | 117.39306 | 26320 ft | 474 kts | 163° |
| 2026-04-18 05:53 | 35.90094 | 117.40496 | 26982 ft | 477 kts | 163° |
| 2026-04-18 05:53 | 35.86902 | 117.41694 | 27586 ft | 481 kts | 163° |
| 2026-04-18 05:53 | 35.83663 | 117.42908 | 28170 ft | 485 kts | 163° |
| 2026-04-18 05:53 | 35.80417 | 117.44122 | 28729 ft | 490 kts | 163° |
| 2026-04-18 05:54 | 35.77128 | 117.45350 | 29331 ft | 494 kts | 163° |
| 2026-04-18 05:54 | 35.73862 | 117.46569 | 30156 ft | 492 kts | 164° |
| 2026-04-18 05:54 | 35.70584 | 117.47791 | 31106 ft | 487 kts | 164° |
| 2026-04-18 05:54 | 35.67389 | 117.48981 | 31936 ft | 482 kts | 164° |
| 2026-04-18 05:55 | 35.64140 | 117.50189 | 32590 ft | 481 kts | 164° |
| 2026-04-18 05:55 | 35.60940 | 117.51379 | 33184 ft | 481 kts | 164° |
| 2026-04-18 05:55 | 35.57738 | 117.52567 | 33736 ft | 480 kts | 164° |
| 2026-04-18 05:55 | 35.54515 | 117.53763 | 34340 ft | 479 kts | 164° |
| 2026-04-18 05:56 | 35.51289 | 117.54958 | 34792 ft | 478 kts | 164° |
| 2026-04-18 05:56 | 35.48048 | 117.56158 | 35222 ft | 477 kts | 165° |
| 2026-04-18 05:56 | 35.44870 | 117.57334 | 35661 ft | 476 kts | 165° |
| 2026-04-18 05:56 | 35.41693 | 117.58509 | 36042 ft | 476 kts | 165° |
| 2026-04-18 05:57 | 35.35339 | 117.60855 | 37005 ft | 472 kts | 166° |
| 2026-04-18 05:57 | 35.32169 | 117.62024 | 37094 ft | 474 kts | 166° |
| 2026-04-18 05:58 | 35.25883 | 117.64339 | 37090 ft | 472 kts | 166° |
| 2026-04-18 05:58 | 35.19550 | 117.66667 | 37055 ft | 472 kts | 166° |
| 2026-04-18 05:59 | 35.13227 | 117.68988 | 37075 ft | 473 kts | 166° |
| 2026-04-18 05:59 | 35.06922 | 117.71299 | 37061 ft | 473 kts | 166° |
| 2026-04-18 06:00 | 35.00583 | 117.73621 | 37090 ft | 476 kts | 166° |
| 2026-04-18 06:00 | 34.94271 | 117.75933 | 37063 ft | 473 kts | 167° |
| 2026-04-18 06:01 | 34.87939 | 117.78247 | 37073 ft | 472 kts | 166° |
| 2026-04-18 06:01 | 34.81830 | 117.80482 | 37069 ft | 474 kts | 166° |
| 2026-04-18 06:02 | 34.75522 | 117.82763 | 37083 ft | 473 kts | 167° |
| 2026-04-18 06:02 | 34.69177 | 117.85045 | 37066 ft | 474 kts | 167° |
| 2026-04-18 06:03 | 34.62843 | 117.87320 | 37069 ft | 473 kts | 167° |
| 2026-04-18 06:03 | 34.56535 | 117.89582 | 37053 ft | 474 kts | 167° |
| 2026-04-18 06:04 | 34.50203 | 117.91849 | 37081 ft | 474 kts | 167° |
| 2026-04-18 06:04 | 34.43885 | 117.94109 | 37060 ft | 473 kts | 167° |
| 2026-04-18 06:05 | 34.37553 | 117.96369 | 37095 ft | 476 kts | 167° |
| 2026-04-18 06:05 | 34.31184 | 117.98640 | 37088 ft | 473 kts | 167° |
| 2026-04-18 06:06 | 34.24823 | 118.00920 | 37074 ft | 475 kts | 167° |
| 2026-04-18 06:06 | 34.18440 | 118.03250 | 37054 ft | 479 kts | 167° |
| 2026-04-18 06:07 | 34.12111 | 118.05557 | 37089 ft | 476 kts | 167° |
| 2026-04-18 06:07 | 34.05735 | 118.07873 | 37082 ft | 477 kts | 167° |
| 2026-04-18 06:08 | 33.99352 | 118.10191 | 37106 ft | 477 kts | 167° |
| 2026-04-18 06:08 | 33.92971 | 118.12516 | 37069 ft | 478 kts | 167° |
| 2026-04-18 06:09 | 33.86592 | 118.14836 | 37111 ft | 479 kts | 167° |
| 2026-04-18 06:09 | 33.80202 | 118.17158 | 37057 ft | 480 kts | 167° |
| 2026-04-18 06:10 | 33.73798 | 118.19492 | 37091 ft | 478 kts | 167° |
| 2026-04-18 06:10 | 33.67438 | 118.21807 | 37079 ft | 479 kts | 167° |
| 2026-04-18 06:11 | 33.61066 | 118.24123 | 37080 ft | 478 kts | 168° |
| 2026-04-18 06:11 | 33.54646 | 118.26452 | 37145 ft | 481 kts | 168° |
| 2026-04-18 06:12 | 33.48253 | 118.28768 | 37053 ft | 478 kts | 168° |
| 2026-04-18 06:12 | 33.41844 | 118.31086 | 37069 ft | 481 kts | 168° |
| 2026-04-18 06:13 | 33.35455 | 118.33393 | 37176 ft | 480 kts | 168° |
| 2026-04-18 06:13 | 33.32251 | 118.34549 | 36985 ft | 479 kts | 168° |
| 2026-04-18 06:13 | 33.29073 | 118.35694 | 37144 ft | 480 kts | 168° |
| 2026-04-18 06:14 | 33.22653 | 118.38006 | 37012 ft | 478 kts | 169° |
| 2026-04-18 06:14 | 33.16226 | 118.40321 | 37068 ft | 480 kts | 168° |
| 2026-04-18 06:15 | 33.09835 | 118.42621 | 37157 ft | 483 kts | 168° |
| 2026-04-18 06:15 | 33.06621 | 118.43776 | 37046 ft | 483 kts | 168° |
| 2026-04-18 06:15 | 33.03421 | 118.44927 | 37056 ft | 480 kts | 169° |
| 2026-04-18 06:16 | 32.96994 | 118.47234 | 37050 ft | 479 kts | 169° |
| 2026-04-18 06:16 | 32.90609 | 118.49522 | 37098 ft | 481 kts | 169° |
| 2026-04-18 06:17 | 32.84166 | 118.51828 | 37088 ft | 479 kts | 169° |
| 2026-04-18 06:17 | 32.77739 | 118.54122 | 37085 ft | 482 kts | 169° |
| 2026-04-18 06:18 | 32.71401 | 118.56384 | 37073 ft | 481 kts | 169° |
| 2026-04-18 06:18 | 32.65141 | 118.58599 | 37064 ft | 480 kts | 170° |
| 2026-04-18 06:19 | 32.58824 | 118.60742 | 37064 ft | 479 kts | 170° |
| 2026-04-18 06:19 | 32.52390 | 118.62922 | 37095 ft | 480 kts | 170° |
| 2026-04-18 06:20 | 32.45965 | 118.65098 | 37148 ft | 479 kts | 171° |
| 2026-04-18 06:20 | 32.39809 | 118.67181 | 36986 ft | 476 kts | 171° |
| 2026-04-18 06:21 | 32.33536 | 118.69300 | 37094 ft | 481 kts | 171° |
| 2026-04-18 06:21 | 32.27195 | 118.71441 | 37082 ft | 478 kts | 171° |
| 2026-04-18 06:22 | 32.20817 | 118.73581 | 37074 ft | 475 kts | 172° |
| 2026-04-18 06:22 | 32.14382 | 118.75732 | 37067 ft | 481 kts | 171° |
| 2026-04-18 06:23 | 32.07988 | 118.77872 | 37086 ft | 477 kts | 172° |
| 2026-04-18 06:23 | 32.01601 | 118.80003 | 37082 ft | 478 kts | 171° |
| 2026-04-18 06:24 | 31.95212 | 118.82098 | 37085 ft | 475 kts | 173° |
| 2026-04-18 06:24 | 31.88788 | 118.84142 | 37179 ft | 475 kts | 172° |
| 2026-04-18 06:25 | 31.82416 | 118.86195 | 37099 ft | 479 kts | 171° |
| 2026-04-18 06:25 | 31.76162 | 118.88995 | 37128 ft | 484 kts | 159° |
| 2026-04-18 06:25 | 31.73316 | 118.91188 | 37124 ft | 498 kts | 149° |
| 2026-04-18 06:26 | 31.70803 | 118.93731 | 37080 ft | 503 kts | 144° |
| 2026-04-18 06:26 | 31.65788 | 118.98511 | 37125 ft | 502 kts | 153° |
| 2026-04-18 06:27 | 31.60170 | 119.03339 | 37101 ft | 496 kts | 150° |
| 2026-04-18 06:27 | 31.54615 | 119.08271 | 37094 ft | 500 kts | 151° |
| 2026-04-18 06:28 | 31.49050 | 119.13188 | 37102 ft | 498 kts | 151° |
| 2026-04-18 06:28 | 31.43487 | 119.18074 | 37059 ft | 499 kts | 151° |
| 2026-04-18 06:29 | 31.37880 | 119.22977 | 37048 ft | 501 kts | 152° |
| 2026-04-18 06:29 | 31.32270 | 119.27870 | 37064 ft | 502 kts | 152° |
| 2026-04-18 06:30 | 31.26692 | 119.32729 | 37071 ft | 497 kts | 151° |
| 2026-04-18 06:30 | 31.21147 | 119.37547 | 37061 ft | 501 kts | 152° |
| 2026-04-18 06:31 | 31.15558 | 119.42419 | 37090 ft | 500 kts | 152° |
| 2026-04-18 06:31 | 31.09959 | 119.47315 | 37062 ft | 502 kts | 152° |
| 2026-04-18 06:32 | 31.04417 | 119.52154 | 37077 ft | 500 kts | 153° |
| 2026-04-18 06:32 | 30.98823 | 119.57028 | 37072 ft | 499 kts | 153° |
| 2026-04-18 06:33 | 30.93242 | 119.61882 | 37070 ft | 499 kts | 153° |
| 2026-04-18 06:33 | 30.87610 | 119.66773 | 37069 ft | 503 kts | 153° |
| 2026-04-18 06:34 | 30.82013 | 119.71630 | 37069 ft | 499 kts | 153° |
| 2026-04-18 06:34 | 30.76402 | 119.76489 | 37063 ft | 500 kts | 153° |
| 2026-04-18 06:35 | 30.71045 | 119.81119 | 37062 ft | 501 kts | 154° |
| 2026-04-18 06:35 | 30.65414 | 119.85954 | 37068 ft | 497 kts | 154° |
| 2026-04-18 06:36 | 30.59803 | 119.90758 | 37073 ft | 500 kts | 154° |
| 2026-04-18 06:36 | 30.54254 | 119.95586 | 37067 ft | 495 kts | 158° |
| 2026-04-18 06:36 | 30.51253 | 119.97506 | 37070 ft | 482 kts | 167° |
| 2026-04-18 06:37 | 30.48170 | 119.98820 | 37072 ft | 465 kts | 175° |
| 2026-04-18 06:37 | 30.45065 | 119.99571 | 37069 ft | 454 kts | 184° |
| 2026-04-18 06:37 | 30.41913 | 119.99790 | 37072 ft | 441 kts | 192° |
| 2026-04-18 06:37 | 30.38901 | 119.99507 | 37074 ft | 430 kts | 199° |
| 2026-04-18 06:38 | 30.35987 | 119.98756 | 37073 ft | 420 kts | 206° |
| 2026-04-18 06:38 | 30.30733 | 119.96116 | 37072 ft | 413 kts | 215° |
| 2026-04-18 06:39 | 30.25687 | 119.93022 | 37065 ft | 405 kts | 216° |
| 2026-04-18 06:39 | 30.20730 | 119.89858 | 37070 ft | 408 kts | 216° |
| 2026-04-18 06:40 | 30.15810 | 119.86657 | 37053 ft | 404 kts | 216° |
| 2026-04-18 06:40 | 30.10884 | 119.83422 | 37045 ft | 406 kts | 217° |
| 2026-04-18 06:41 | 30.05998 | 119.80200 | 37083 ft | 410 kts | 217° |
| 2026-04-18 06:41 | 30.03500 | 119.78543 | 37357 ft | 411 kts | 217° |
| 2026-04-18 06:41 | 30.01038 | 119.76890 | 37899 ft | 407 kts | 217° |
| 2026-04-18 06:41 | 29.98591 | 119.75244 | 38035 ft | 407 kts | 217° |
| 2026-04-18 06:42 | 29.96151 | 119.73605 | 38049 ft | 403 kts | 218° |
| 2026-04-18 06:42 | 29.91300 | 119.70346 | 38034 ft | 403 kts | 218° |
| 2026-04-18 06:43 | 29.86436 | 119.67082 | 38089 ft | 405 kts | 218° |
| 2026-04-18 06:43 | 29.81709 | 119.63588 | 38072 ft | 397 kts | 221° |
| 2026-04-18 06:44 | 29.77131 | 119.59951 | 38085 ft | 398 kts | 221° |
| 2026-04-18 06:44 | 29.72571 | 119.56361 | 38063 ft | 396 kts | 221° |
| 2026-04-18 06:45 | 29.67989 | 119.52773 | 38070 ft | 397 kts | 221° |
| 2026-04-18 06:45 | 29.63456 | 119.49058 | 38072 ft | 393 kts | 226° |
| 2026-04-18 06:46 | 29.59664 | 119.44564 | 38047 ft | 389 kts | 232° |
| 2026-04-18 06:46 | 29.56028 | 119.39916 | 38056 ft | 391 kts | 232° |
| 2026-04-18 06:47 | 29.52402 | 119.35293 | 38036 ft | 390 kts | 232° |
| 2026-04-18 06:47 | 29.48739 | 119.30625 | 38074 ft | 391 kts | 232° |
| 2026-04-18 06:48 | 29.45097 | 119.25992 | 38067 ft | 391 kts | 232° |
| 2026-04-18 06:48 | 29.41434 | 119.21339 | 38059 ft | 392 kts | 231° |
| 2026-04-18 06:49 | 29.37799 | 119.16727 | 38069 ft | 391 kts | 231° |
| 2026-04-18 06:49 | 29.34150 | 119.12106 | 38051 ft | 392 kts | 231° |
| 2026-04-18 06:50 | 29.30481 | 119.07472 | 38071 ft | 392 kts | 231° |
| 2026-04-18 06:50 | 29.26797 | 119.02825 | 38049 ft | 390 kts | 231° |
| 2026-04-18 06:51 | 29.23147 | 118.98226 | 38059 ft | 392 kts | 231° |
| 2026-04-18 06:51 | 29.19480 | 118.93617 | 38063 ft | 391 kts | 231° |
| 2026-04-18 06:52 | 29.15793 | 118.88986 | 38052 ft | 392 kts | 231° |
| 2026-04-18 06:52 | 29.12117 | 118.84375 | 38028 ft | 392 kts | 231° |
| 2026-04-18 06:53 | 29.08434 | 118.79761 | 38041 ft | 391 kts | 232° |
| 2026-04-18 06:53 | 29.04752 | 118.75153 | 38038 ft | 392 kts | 231° |
| 2026-04-18 06:54 | 29.01048 | 118.70521 | 38021 ft | 392 kts | 231° |
| 2026-04-18 06:54 | 28.97384 | 118.65948 | 38017 ft | 391 kts | 232° |
| 2026-04-18 06:55 | 28.93717 | 118.61374 | 38012 ft | 389 kts | 232° |
| 2026-04-18 06:55 | 28.90042 | 118.56794 | 38028 ft | 392 kts | 231° |
| 2026-04-18 06:56 | 28.86331 | 118.52177 | 38037 ft | 391 kts | 231° |
| 2026-04-18 06:56 | 28.82615 | 118.47557 | 38029 ft | 393 kts | 231° |
| 2026-04-18 06:57 | 28.78922 | 118.42972 | 38042 ft | 393 kts | 231° |
| 2026-04-18 06:57 | 28.73386 | 118.36108 | 38042 ft | 392 kts | 231° |
| 2026-04-18 06:58 | 28.69667 | 118.31503 | 38047 ft | 394 kts | 231° |
| 2026-04-18 06:58 | 28.65955 | 118.26912 | 38074 ft | 393 kts | 231° |
| 2026-04-18 06:59 | 28.62254 | 118.22340 | 38059 ft | 395 kts | 231° |
| 2026-04-18 06:59 | 28.58516 | 118.17728 | 38055 ft | 395 kts | 231° |
| 2026-04-18 07:00 | 28.54782 | 118.13126 | 38025 ft | 396 kts | 231° |
| 2026-04-18 07:00 | 28.51065 | 118.08548 | 38042 ft | 397 kts | 231° |
| 2026-04-18 07:01 | 28.47335 | 118.03962 | 38053 ft | 396 kts | 231° |
| 2026-04-18 07:01 | 28.43584 | 117.99353 | 38033 ft | 395 kts | 231° |
| 2026-04-18 07:02 | 28.39841 | 117.94810 | 38053 ft | 396 kts | 230° |
| 2026-04-18 07:02 | 28.35990 | 117.90273 | 38040 ft | 396 kts | 230° |
| 2026-04-18 07:03 | 28.32181 | 117.85783 | 38042 ft | 397 kts | 230° |
| 2026-04-18 07:03 | 28.28331 | 117.81245 | 38035 ft | 396 kts | 230° |
| 2026-04-18 07:04 | 28.24497 | 117.76730 | 38027 ft | 398 kts | 230° |
| 2026-04-18 07:04 | 28.20641 | 117.72193 | 38041 ft | 399 kts | 230° |
| 2026-04-18 07:05 | 28.16784 | 117.67659 | 38033 ft | 400 kts | 230° |
| 2026-04-18 07:05 | 28.12914 | 117.63116 | 38048 ft | 398 kts | 230° |
| 2026-04-18 07:06 | 28.09063 | 117.58599 | 38045 ft | 399 kts | 230° |
| 2026-04-18 07:06 | 28.05199 | 117.54072 | 38051 ft | 398 kts | 230° |
| 2026-04-18 07:07 | 28.01335 | 117.49548 | 38029 ft | 398 kts | 230° |
| 2026-04-18 07:07 | 27.97465 | 117.45019 | 38042 ft | 401 kts | 230° |
| 2026-04-18 07:08 | 27.93601 | 117.40505 | 38048 ft | 400 kts | 230° |
| 2026-04-18 07:08 | 27.89830 | 117.36103 | 38073 ft | 403 kts | 230° |
| 2026-04-18 07:09 | 27.85847 | 117.31460 | 38102 ft | 401 kts | 230° |
| 2026-04-18 07:09 | 27.81980 | 117.26957 | 38076 ft | 401 kts | 230° |
| 2026-04-18 07:10 | 27.78083 | 117.22423 | 38090 ft | 402 kts | 230° |
| 2026-04-18 07:10 | 27.74196 | 117.17905 | 38085 ft | 401 kts | 229° |
| 2026-04-18 07:11 | 27.70287 | 117.13368 | 38074 ft | 402 kts | 229° |
| 2026-04-18 07:11 | 27.66380 | 117.08839 | 38098 ft | 402 kts | 229° |
| 2026-04-18 07:12 | 27.62466 | 117.04304 | 38088 ft | 404 kts | 229° |
| 2026-04-18 07:12 | 27.58542 | 116.99765 | 38083 ft | 402 kts | 229° |
| 2026-04-18 07:13 | 27.54634 | 116.95249 | 38080 ft | 404 kts | 229° |
| 2026-04-18 07:13 | 27.50699 | 116.90696 | 38074 ft | 405 kts | 230° |
| 2026-04-18 07:14 | 27.46812 | 116.86140 | 38065 ft | 402 kts | 230° |
| 2026-04-18 07:14 | 27.42906 | 116.81566 | 38053 ft | 405 kts | 230° |
| 2026-04-18 07:15 | 27.39017 | 116.77020 | 38043 ft | 402 kts | 230° |
| 2026-04-18 07:15 | 27.35121 | 116.72472 | 38037 ft | 402 kts | 230° |
| 2026-04-18 07:16 | 27.31234 | 116.67937 | 38044 ft | 405 kts | 230° |
| 2026-04-18 07:16 | 27.27322 | 116.63380 | 38037 ft | 406 kts | 229° |
| 2026-04-18 07:17 | 27.23383 | 116.58798 | 38034 ft | 404 kts | 230° |
| 2026-04-18 07:17 | 27.19484 | 116.54233 | 38030 ft | 407 kts | 230° |
| 2026-04-18 07:18 | 27.15659 | 116.49583 | 38027 ft | 405 kts | 231° |
| 2026-04-18 07:18 | 27.11802 | 116.44900 | 38030 ft | 407 kts | 231° |
| 2026-04-18 07:19 | 27.07962 | 116.40252 | 38042 ft | 405 kts | 231° |
| 2026-04-18 07:19 | 27.04128 | 116.35616 | 38049 ft | 407 kts | 230° |
| 2026-04-18 07:20 | 27.00258 | 116.30946 | 38055 ft | 407 kts | 230° |
| 2026-04-18 07:20 | 26.96400 | 116.26292 | 38060 ft | 408 kts | 230° |
| 2026-04-18 07:21 | 26.92520 | 116.21621 | 38056 ft | 408 kts | 230° |
| 2026-04-18 07:21 | 26.88659 | 116.16931 | 38071 ft | 407 kts | 231° |
| 2026-04-18 07:22 | 26.84822 | 116.12254 | 38048 ft | 408 kts | 231° |
| 2026-04-18 07:22 | 26.80961 | 116.07556 | 38071 ft | 407 kts | 231° |
| 2026-04-18 07:23 | 26.77132 | 116.02902 | 38041 ft | 409 kts | 230° |
| 2026-04-18 07:23 | 26.73266 | 115.98211 | 38052 ft | 407 kts | 231° |
| 2026-04-18 07:24 | 26.69418 | 115.93545 | 38062 ft | 407 kts | 231° |
| 2026-04-18 07:24 | 26.65594 | 115.88915 | 38068 ft | 409 kts | 231° |
| 2026-04-18 07:25 | 26.61713 | 115.84219 | 38062 ft | 410 kts | 231° |
| 2026-04-18 07:25 | 26.57861 | 115.79564 | 38063 ft | 409 kts | 231° |
| 2026-04-18 07:26 | 26.53997 | 115.74899 | 38066 ft | 409 kts | 231° |
| 2026-04-18 07:26 | 26.50123 | 115.70228 | 38046 ft | 411 kts | 231° |
| 2026-04-18 07:27 | 26.46234 | 115.65543 | 38028 ft | 410 kts | 231° |
| 2026-04-18 07:27 | 26.42355 | 115.60876 | 38054 ft | 410 kts | 231° |
| 2026-04-18 07:28 | 26.38467 | 115.56203 | 38061 ft | 410 kts | 231° |
| 2026-04-18 07:28 | 26.34582 | 115.51538 | 38059 ft | 410 kts | 231° |
| 2026-04-18 07:29 | 26.30686 | 115.46865 | 38057 ft | 411 kts | 231° |
| 2026-04-18 07:29 | 26.26816 | 115.42228 | 38050 ft | 410 kts | 231° |
| 2026-04-18 07:30 | 26.22926 | 115.37572 | 38043 ft | 411 kts | 231° |
| 2026-04-18 07:30 | 26.19062 | 115.32951 | 38068 ft | 411 kts | 231° |
| 2026-04-18 07:31 | 26.15133 | 115.28259 | 38057 ft | 411 kts | 231° |
| 2026-04-18 07:31 | 26.11219 | 115.23589 | 38039 ft | 413 kts | 230° |
| 2026-04-18 07:32 | 26.07315 | 115.18936 | 38055 ft | 412 kts | 230° |
| 2026-04-18 07:32 | 26.03371 | 115.14239 | 38046 ft | 413 kts | 230° |
| 2026-04-18 07:33 | 25.99463 | 115.09592 | 38052 ft | 415 kts | 230° |
| 2026-04-18 07:33 | 25.95538 | 115.04929 | 38059 ft | 412 kts | 230° |
| 2026-04-18 07:34 | 25.91606 | 115.00261 | 38063 ft | 415 kts | 230° |
| 2026-04-18 07:34 | 25.87651 | 114.95573 | 38069 ft | 413 kts | 231° |
| 2026-04-18 07:35 | 25.83610 | 114.91015 | 38069 ft | 416 kts | 224° |
| 2026-04-18 07:35 | 25.78686 | 114.87530 | 38052 ft | 426 kts | 211° |
| 2026-04-18 07:36 | 25.72900 | 114.85522 | 38048 ft | 438 kts | 200° |
| 2026-04-18 07:36 | 25.66932 | 114.84038 | 38047 ft | 438 kts | 200° |
| 2026-04-18 07:37 | 25.60976 | 114.82562 | 38030 ft | 439 kts | 200° |
| 2026-04-18 07:37 | 25.55009 | 114.81084 | 38030 ft | 439 kts | 200° |
| 2026-04-18 07:38 | 25.49017 | 114.79600 | 38029 ft | 438 kts | 200° |
| 2026-04-18 07:38 | 25.43033 | 114.78120 | 38022 ft | 440 kts | 200° |
| 2026-04-18 07:39 | 25.37062 | 114.76644 | 38024 ft | 439 kts | 200° |
| 2026-04-18 07:39 | 25.31121 | 114.75178 | 38018 ft | 437 kts | 200° |
| 2026-04-18 07:40 | 25.25158 | 114.73706 | 38008 ft | 437 kts | 200° |
| 2026-04-18 07:40 | 25.19176 | 114.72231 | 38019 ft | 437 kts | 200° |
| 2026-04-18 07:41 | 25.13227 | 114.70766 | 38024 ft | 439 kts | 200° |
| 2026-04-18 07:41 | 25.07219 | 114.69289 | 38028 ft | 439 kts | 199° |
| 2026-04-18 07:42 | 25.01248 | 114.67821 | 38040 ft | 440 kts | 200° |
| 2026-04-18 07:42 | 24.95284 | 114.66358 | 38033 ft | 438 kts | 200° |
| 2026-04-18 07:43 | 24.89542 | 114.64949 | 38038 ft | 440 kts | 199° |
| 2026-04-18 07:43 | 24.83495 | 114.63465 | 38040 ft | 440 kts | 199° |
| 2026-04-18 07:44 | 24.77895 | 114.62090 | 38047 ft | 440 kts | 199° |
| 2026-04-18 07:44 | 24.71906 | 114.60568 | 38040 ft | 437 kts | 203° |
| 2026-04-18 07:45 | 24.66427 | 114.57883 | 38051 ft | 428 kts | 215° |
| 2026-04-18 07:45 | 24.61251 | 114.54612 | 38053 ft | 426 kts | 215° |
| 2026-04-18 07:46 | 24.56097 | 114.51352 | 38066 ft | 428 kts | 215° |
| 2026-04-18 07:46 | 24.50915 | 114.48081 | 38050 ft | 428 kts | 216° |
| 2026-04-18 07:47 | 24.45712 | 114.44801 | 38050 ft | 427 kts | 215° |
| 2026-04-18 07:47 | 24.40548 | 114.41550 | 38049 ft | 428 kts | 215° |
| 2026-04-18 07:48 | 24.35326 | 114.38273 | 38045 ft | 428 kts | 215° |
| 2026-04-18 07:48 | 24.30135 | 114.35020 | 38033 ft | 428 kts | 215° |
| 2026-04-18 07:49 | 24.25059 | 114.31840 | 38054 ft | 430 kts | 214° |
| 2026-04-18 07:49 | 24.19868 | 114.28594 | 38046 ft | 427 kts | 214° |
| 2026-04-18 07:50 | 24.17278 | 114.26976 | 37860 ft | 425 kts | 215° |
| 2026-04-18 07:50 | 24.14712 | 114.25372 | 37494 ft | 428 kts | 215° |
| 2026-04-18 07:50 | 24.12138 | 114.23659 | 37096 ft | 428 kts | 220° |
| 2026-04-18 07:50 | 24.09834 | 114.21633 | 36790 ft | 424 kts | 227° |
| 2026-04-18 07:51 | 24.07808 | 114.19267 | 36592 ft | 420 kts | 234° |
| 2026-04-18 07:51 | 24.06128 | 114.16660 | 36468 ft | 416 kts | 241° |
| 2026-04-18 07:51 | 24.04744 | 114.13928 | 36070 ft | 410 kts | 243° |
| 2026-04-18 07:51 | 24.03429 | 114.11219 | 35373 ft | 409 kts | 244° |
| 2026-04-18 07:52 | 24.02091 | 114.08456 | 34606 ft | 409 kts | 244° |
| 2026-04-18 07:52 | 24.00759 | 114.05705 | 33897 ft | 407 kts | 244° |
| 2026-04-18 07:52 | 23.99436 | 114.02974 | 33195 ft | 406 kts | 244° |
| 2026-04-18 07:52 | 23.98121 | 114.00260 | 32460 ft | 405 kts | 244° |
| 2026-04-18 07:53 | 23.96775 | 113.97480 | 31746 ft | 421 kts | 244° |
| 2026-04-18 07:53 | 23.95388 | 113.94618 | 30939 ft | 433 kts | 244° |
| 2026-04-18 07:53 | 23.93990 | 113.91739 | 30337 ft | 431 kts | 244° |
| 2026-04-18 07:53 | 23.92593 | 113.88866 | 29892 ft | 424 kts | 244° |
| 2026-04-18 07:54 | 23.91216 | 113.86032 | 29392 ft | 422 kts | 244° |
| 2026-04-18 07:54 | 23.89890 | 113.83308 | 28881 ft | 420 kts | 245° |
| 2026-04-18 07:54 | 23.88539 | 113.80530 | 28350 ft | 419 kts | 244° |
| 2026-04-18 07:54 | 23.87161 | 113.77698 | 27830 ft | 417 kts | 244° |
| 2026-04-18 07:55 | 23.85802 | 113.74908 | 27297 ft | 416 kts | 245° |
| 2026-04-18 07:55 | 23.84455 | 113.72144 | 26754 ft | 413 kts | 245° |
| 2026-04-18 07:55 | 23.83099 | 113.69361 | 26219 ft | 412 kts | 245° |
| 2026-04-18 07:55 | 23.81763 | 113.66630 | 25674 ft | 411 kts | 244° |
| 2026-04-18 07:56 | 23.80172 | 113.64009 | 25114 ft | 413 kts | 235° |
| 2026-04-18 07:56 | 23.78213 | 113.61691 | 24555 ft | 416 kts | 227° |
| 2026-04-18 07:56 | 23.75949 | 113.59747 | 23977 ft | 418 kts | 219° |
| 2026-04-18 07:56 | 23.73480 | 113.58034 | 23391 ft | 418 kts | 217° |
| 2026-04-18 07:57 | 23.70998 | 113.56348 | 22792 ft | 420 kts | 217° |
| 2026-04-18 07:57 | 23.68547 | 113.54685 | 22206 ft | 419 kts | 217° |
| 2026-04-18 07:57 | 23.66077 | 113.53010 | 21612 ft | 415 kts | 216° |
| 2026-04-18 07:57 | 23.63620 | 113.51344 | 21027 ft | 411 kts | 216° |
| 2026-04-18 07:58 | 23.58634 | 113.48402 | 19867 ft | 411 kts | 203° |
| 2026-04-18 07:58 | 23.55893 | 113.47535 | 19273 ft | 410 kts | 198° |
| 2026-04-18 07:58 | 23.53135 | 113.46780 | 18691 ft | 407 kts | 197° |
| 2026-04-18 07:59 | 23.50382 | 113.46034 | 18087 ft | 404 kts | 197° |
| 2026-04-18 07:59 | 23.47669 | 113.45299 | 17499 ft | 400 kts | 197° |
| 2026-04-18 07:59 | 23.44956 | 113.44564 | 16890 ft | 397 kts | 197° |
| 2026-04-18 07:59 | 23.42302 | 113.43845 | 16310 ft | 394 kts | 197° |
| 2026-04-18 08:00 | 23.39615 | 113.43117 | 15713 ft | 392 kts | 197° |
| 2026-04-18 08:00 | 23.37013 | 113.42412 | 15122 ft | 390 kts | 197° |
| 2026-04-18 08:00 | 23.34384 | 113.41699 | 14524 ft | 388 kts | 196° |
| 2026-04-18 08:00 | 23.31771 | 113.40992 | 13933 ft | 386 kts | 196° |
| 2026-04-18 08:01 | 23.29198 | 113.40296 | 13564 ft | 376 kts | 196° |
| 2026-04-18 08:01 | 23.26715 | 113.39625 | 13463 ft | 359 kts | 197° |
| 2026-04-18 08:01 | 23.24323 | 113.38979 | 13338 ft | 344 kts | 197° |
| 2026-04-18 08:01 | 23.22032 | 113.38361 | 13205 ft | 332 kts | 197° |
| 2026-04-18 08:02 | 23.19811 | 113.37759 | 13075 ft | 319 kts | 197° |
| 2026-04-18 08:02 | 23.17702 | 113.37189 | 12951 ft | 308 kts | 197° |
| 2026-04-18 08:02 | 23.15638 | 113.36631 | 12798 ft | 297 kts | 197° |
| 2026-04-18 08:02 | 23.13665 | 113.36098 | 12712 ft | 286 kts | 197° |
| 2026-04-18 08:03 | 23.11788 | 113.35591 | 12649 ft | 275 kts | 197° |
| 2026-04-18 08:03 | 23.09961 | 113.35098 | 12548 ft | 264 kts | 197° |
| 2026-04-18 08:03 | 23.08252 | 113.34636 | 12396 ft | 257 kts | 197° |
| 2026-04-18 08:03 | 23.06498 | 113.34161 | 12082 ft | 260 kts | 197° |
| 2026-04-18 08:04 | 23.04717 | 113.33681 | 11737 ft | 262 kts | 197° |
| 2026-04-18 08:04 | 23.02933 | 113.33200 | 11410 ft | 262 kts | 197° |
| 2026-04-18 08:04 | 23.01158 | 113.32721 | 11094 ft | 263 kts | 197° |
| 2026-04-18 08:04 | 22.99381 | 113.32242 | 10779 ft | 263 kts | 197° |
| 2026-04-18 08:05 | 22.97597 | 113.31762 | 10468 ft | 263 kts | 197° |
| 2026-04-18 08:05 | 22.95828 | 113.31286 | 10156 ft | 260 kts | 197° |
| 2026-04-18 08:05 | 22.94111 | 113.30820 | 9847 ft | 252 kts | 200° |
| 2026-04-18 08:05 | 22.92647 | 113.29940 | 9540 ft | 232 kts | 230° |
| 2026-04-18 08:06 | 22.91784 | 113.28550 | 9273 ft | 215 kts | 252° |
| 2026-04-18 08:06 | 22.91532 | 113.27020 | 9032 ft | 202 kts | 273° |
| 2026-04-18 08:06 | 22.91627 | 113.25518 | 8797 ft | 200 kts | 278° |
| 2026-04-18 08:06 | 22.91873 | 113.24030 | 8543 ft | 197 kts | 283° |
| 2026-04-18 08:07 | 22.92189 | 113.22598 | 8285 ft | 194 kts | 284° |
| 2026-04-18 08:07 | 22.92637 | 113.21205 | 8056 ft | 196 kts | 301° |
| 2026-04-18 08:07 | 22.93570 | 113.20150 | 7829 ft | 194 kts | 327° |
| 2026-04-18 08:07 | 22.94843 | 113.19660 | 7657 ft | 201 kts | 352° |
| 2026-04-18 08:08 | 22.96241 | 113.19799 | 7352 ft | 204 kts | 10° |
| 2026-04-18 08:08 | 22.97623 | 113.20173 | 7056 ft | 203 kts | 12° |
| 2026-04-18 08:08 | 22.98991 | 113.20548 | 6792 ft | 202 kts | 12° |
| 2026-04-18 08:08 | 23.00349 | 113.20915 | 6528 ft | 200 kts | 12° |
| 2026-04-18 08:09 | 23.01696 | 113.21275 | 6273 ft | 199 kts | 12° |
| 2026-04-18 08:09 | 23.03055 | 113.21641 | 6016 ft | 198 kts | 12° |
| 2026-04-18 08:09 | 23.04375 | 113.21995 | 5755 ft | 197 kts | 12° |
| 2026-04-18 08:09 | 23.05713 | 113.22355 | 5506 ft | 197 kts | 12° |
| 2026-04-18 08:10 | 23.07063 | 113.22717 | 5242 ft | 197 kts | 12° |
| 2026-04-18 08:10 | 23.08387 | 113.23073 | 4985 ft | 196 kts | 13° |
| 2026-04-18 08:10 | 23.09710 | 113.23428 | 4745 ft | 194 kts | 12° |
| 2026-04-18 08:10 | 23.11029 | 113.23783 | 4550 ft | 195 kts | 13° |
| 2026-04-18 08:11 | 23.12342 | 113.24136 | 4356 ft | 195 kts | 13° |
| 2026-04-18 08:11 | 23.13662 | 113.24492 | 4166 ft | 194 kts | 13° |
| 2026-04-18 08:11 | 23.14979 | 113.24846 | 3974 ft | 193 kts | 12° |
| 2026-04-18 08:11 | 23.16286 | 113.25198 | 3780 ft | 192 kts | 12° |
| 2026-04-18 08:12 | 23.17583 | 113.25547 | 3586 ft | 191 kts | 12° |
| 2026-04-18 08:12 | 23.18884 | 113.25897 | 3390 ft | 190 kts | 12° |
| 2026-04-18 08:12 | 23.20162 | 113.26242 | 3176 ft | 191 kts | 12° |
| 2026-04-18 08:12 | 23.21456 | 113.26590 | 2933 ft | 190 kts | 12° |
| 2026-04-18 08:13 | 23.22737 | 113.26935 | 2694 ft | 189 kts | 12° |
| 2026-04-18 08:13 | 23.24013 | 113.27280 | 2462 ft | 186 kts | 12° |
| 2026-04-18 08:13 | 23.25235 | 113.27608 | 2223 ft | 174 kts | 12° |
| 2026-04-18 08:13 | 23.26399 | 113.27923 | 2008 ft | 168 kts | 12° |
| 2026-04-18 08:14 | 23.27508 | 113.28222 | 1798 ft | 162 kts | 12° |
| 2026-04-18 08:14 | 23.28574 | 113.28510 | 1608 ft | 150 kts | 12° |
| 2026-04-18 08:14 | 23.29588 | 113.28783 | 1426 ft | 148 kts | 12° |
| 2026-04-18 08:14 | 23.30574 | 113.29048 | 1243 ft | 146 kts | 12° |
| 2026-04-18 08:15 | 23.31567 | 113.29317 | 1057 ft | 146 kts | 12° |
| 2026-04-18 08:15 | 23.32558 | 113.29583 | 901 ft | 145 kts | 11° |
| 2026-04-18 08:15 | 23.33544 | 113.29842 | 726 ft | 146 kts | 12° |
| 2026-04-18 08:15 | 23.34538 | 113.30118 | 538 ft | 147 kts | 13° |
| 2026-04-18 08:16 | 23.35534 | 113.30392 | 351 ft | 144 kts | 12° |
| 2026-04-18 08:16 | 23.36510 | 113.30656 | 169 ft | 144 kts | 12° |
| 2026-04-18 08:16 | 23.37476 | 113.30912 | 56 ft | 135 kts | 12° |
| 2026-04-18 08:16 | 23.38269 | 113.31126 | 55 ft | 95 kts | 14° |
| 2026-04-18 08:17 | 23.38768 | 113.31261 | 55 ft | 50 kts | 14° |
| 2026-04-18 08:17 | 23.39016 | 113.31329 | 55 ft | 31 kts | 13° |
| 2026-04-18 08:17 | 23.39192 | 113.31375 | 55 ft | 20 kts | 12° |
| 2026-04-18 08:17 | 23.39325 | 113.31391 | 55 ft | 18 kts | 359° |
| 2026-04-18 08:18 | 23.39446 | 113.31374 | 55 ft | 17 kts | 347° |
| 2026-04-18 08:18 | 23.39560 | 113.31344 | 55 ft | 16 kts | 346° |
| 2026-04-18 08:18 | 23.39668 | 113.31319 | 55 ft | 15 kts | 352° |
| 2026-04-18 08:18 | 23.39781 | 113.31334 | 55 ft | 17 kts | 13° |
| 2026-04-18 08:19 | 23.39911 | 113.31368 | 55 ft | 20 kts | 14° |
| 2026-04-18 08:19 | 23.40054 | 113.31407 | 55 ft | 22 kts | 13° |
| 2026-04-18 08:19 | 23.40215 | 113.31451 | 55 ft | 24 kts | 14° |
| 2026-04-18 08:19 | 23.40389 | 113.31498 | 55 ft | 26 kts | 14° |
| 2026-04-18 08:20 | 23.40573 | 113.31548 | 55 ft | 28 kts | 14° |
| 2026-04-18 08:20 | 23.40725 | 113.31589 | 55 ft | 17 kts | 14° |
| 2026-04-18 08:20 | 23.40784 | 113.31605 | 55 ft | 8 kts | 14° |
| 2026-04-18 08:20 | 23.40836 | 113.31596 | 55 ft | 7 kts | 317° |
| 2026-04-18 08:21 | 23.40854 | 113.31554 | 55 ft | 8 kts | 284° |
| 2026-04-18 08:21 | 23.40872 | 113.31474 | 55 ft | 10 kts | 284° |
| 2026-04-18 08:21 | 23.40892 | 113.31387 | 55 ft | 13 kts | 283° |
| 2026-04-18 08:21 | 23.40910 | 113.31312 | 55 ft | 9 kts | 284° |
| 2026-04-18 08:22 | 23.40902 | 113.31236 | 55 ft | 8 kts | 223° |
| 2026-04-18 08:22 | 23.40843 | 113.31216 | 55 ft | 9 kts | 192° |
| 2026-04-18 08:22 | 23.40776 | 113.31199 | 55 ft | 11 kts | 194° |
| 2026-04-18 08:22 | 23.40685 | 113.31174 | 55 ft | 15 kts | 194° |
| 2026-04-18 08:23 | 23.40568 | 113.31142 | 55 ft | 18 kts | 194° |
| 2026-04-18 08:23 | 23.40430 | 113.31105 | 55 ft | 21 kts | 194° |
| 2026-04-18 08:23 | 23.40277 | 113.31064 | 55 ft | 18 kts | 193° |
| 2026-04-18 08:23 | 23.40207 | 113.31045 | 55 ft | 8 kts | 198° |
| 2026-04-18 08:24 | 23.40181 | 113.30994 | 55 ft | 8 kts | 283° |
| 2026-04-18 08:24 | 23.40194 | 113.30939 | 55 ft | 8 kts | 284° |
| 2026-04-18 08:24 | 23.40205 | 113.30872 | 55 ft | 8 kts | 264° |
| 2026-04-18 08:24 | 23.40167 | 113.30833 | 55 ft | 8 kts | 195° |
| 2026-04-18 08:25 | 23.40109 | 113.30817 | 55 ft | 8 kts | 194° |
| 2026-04-18 08:25 | 23.40049 | 113.30801 | 55 ft | 8 kts | 194° |
| 2026-04-18 08:25 | 23.39988 | 113.30785 | 55 ft | 9 kts | 194° |
| 2026-04-18 08:25 | 23.39926 | 113.30768 | 55 ft | 9 kts | 194° |
| 2026-04-18 08:26 | 23.39864 | 113.30751 | 55 ft | 9 kts | 194° |
| 2026-04-18 08:26 | 23.39806 | 113.30724 | 55 ft | 8 kts | 223° |
| 2026-04-18 08:26 | 23.39784 | 113.30662 | 55 ft | 6 kts | 258° |
| 2026-04-18 08:26 | 23.39777 | 113.30625 | 55 ft | 5 kts | 259° |
| 2026-04-18 08:27 | 23.39773 | 113.30606 | 55 ft | 0 kts | 259° |
| 2026-04-18 08:27 | 23.39773 | 113.30604 | 55 ft | 0 kts | 259° |